Skip Navigation LinksHome page > Weather > Current weather Skip Navigation Links

Current Weather

Sarh, Chad

For information only: do not use for flight planning or navigation.
Latest weather
Observation time Thursday, October 8, 2015 8:00 PM WAT
Local time Thursday, October 8, 2015 9:04 PM WAT
Flight conditions Visual Meteorological Conditions
Wind direction North (360°)
Wind speed 7 mph
Visibility 6.2 mi.
Sky condition
Ceiling unlimited
Cloud layer few clouds 2,000 ft.
Temperature 73°F
Dewpoint 70°F
Altimeter 29.94 in.Hg
Derived measurements
Relative humidity 89%
Density altitude 1605 ft.
METAR FTTA 081900Z 36006KT 9999 FEW020 23/21 Q1014


Location code

InnerDrive.Weather 4.0.5722.1 Release CLR 4.0.30319.34014
Copyright ©2015 Inner Drive Technology. All rights reserved. Portions Copyright ©1986-2015 David Braverman.

Find weather

Site navigation

Skip Navigation Links

Place info

Page info

PayPal - The safer, easier way to pay online!

Return home.

Copyright ©2015 Inner Drive Technology. Purveyors of fine, hand-crafted computer software. Page printed 2015-10-08T20:04:41 UTC.